createdAt,value
2022-11-06T00:01:48.799Z,9.1
2022-11-06T00:06:56.073Z,9.1
2022-11-06T00:12:02.214Z,9.1
2022-11-06T00:17:08.472Z,9
2022-11-06T00:22:15.880Z,8.9
2022-11-06T00:27:28.351Z,8.9
2022-11-06T00:32:50.111Z,8.9
2022-11-06T00:37:54.843Z,8.8
2022-11-06T00:43:16.824Z,8.8
2022-11-06T00:48:38.490Z,8.7
2022-11-06T00:54:01.631Z,8.7
2022-11-06T00:59:24.352Z,8.6
2022-11-06T01:04:47.595Z,8.5
2022-11-06T01:10:09.177Z,8.3
2022-11-06T01:15:58.238Z,8.2
2022-11-06T01:21:20.563Z,8.1
2022-11-06T01:32:47.756Z,7.9
2022-11-06T01:37:54.137Z,7.9
2022-11-06T01:43:15.613Z,7.8
2022-11-06T01:48:57.678Z,7.8
2022-11-06T01:54:19.464Z,7.7
2022-11-06T01:59:42.399Z,7.6
2022-11-06T02:05:06.207Z,7.5
2022-11-06T02:10:12.012Z,7.4
2022-11-06T02:15:49.548Z,7.4
2022-11-06T02:21:25.636Z,7.5
2022-11-06T02:27:02.521Z,7.7
2022-11-06T02:32:09.027Z,7.8
2022-11-06T02:37:46.243Z,8
2022-11-06T02:43:08.316Z,8.3
2022-11-06T02:48:45.243Z,8.6
2022-11-06T02:54:23.016Z,8.9
2022-11-06T02:59:45.158Z,9.1
2022-11-06T03:05:08.257Z,9.3
2022-11-06T03:10:30.847Z,9.5
2022-11-06T03:16:07.692Z,9.7
2022-11-06T03:21:44.825Z,9.8
2022-11-06T03:27:22.415Z,9.9
2022-11-06T03:32:35.208Z,10
2022-11-06T03:37:56.217Z,10.1
2022-11-06T03:43:33.661Z,10.1
2022-11-06T03:49:10.110Z,10.1
2022-11-06T03:54:46.411Z,10.1
2022-11-06T04:00:24.824Z,10.1
2022-11-06T04:05:47.622Z,10.2
2022-11-06T04:11:25.761Z,10.3
2022-11-06T04:16:47.002Z,10.3
2022-11-06T04:21:53.669Z,10.3
2022-11-06T04:27:31.272Z,10.4
2022-11-06T04:33:11.984Z,10.4
2022-11-06T04:38:17.191Z,10.4
2022-11-06T04:43:39.010Z,10.6
2022-11-06T04:48:45.491Z,10.6
2022-11-06T04:54:23.001Z,10.6
2022-11-06T05:00:09.425Z,10.6
2022-11-06T05:05:31.730Z,10.6
2022-11-06T05:11:12.952Z,10.8
2022-11-06T05:16:50.291Z,10.9
2022-11-06T05:22:28.335Z,11
2022-11-06T05:28:11.553Z,11.1
2022-11-06T05:33:48.844Z,11.1
2022-11-06T05:39:26.091Z,11.2
2022-11-06T05:45:02.842Z,11.3
2022-11-06T05:51:04.966Z,11.4
2022-11-06T05:56:44.027Z,11.4
2022-11-06T06:02:05.828Z,11.6
2022-11-06T06:07:43.196Z,11.7
2022-11-06T06:13:21.657Z,11.9
2022-11-06T06:19:05.692Z,12.1
2022-11-06T06:24:43.918Z,12.3
2022-11-06T06:30:12.656Z,12.6
2022-11-06T06:35:50.006Z,12.7
2022-11-06T06:41:17.585Z,12.9
2022-11-06T06:47:02.350Z,13.2
2022-11-06T06:52:40.076Z,13.4
2022-11-06T06:58:18.276Z,13.7
2022-11-06T07:04:01.418Z,14
2022-11-06T07:09:26.384Z,14.5
2022-11-06T07:15:05.075Z,15.3
2022-11-06T07:20:27.267Z,15.9
2022-11-06T07:25:57.877Z,16.3
2022-11-06T07:31:20.596Z,16.6
2022-11-06T07:36:42.271Z,16.7
2022-11-06T07:42:04.725Z,16.8
2022-11-06T07:52:45.445Z,17.3
2022-11-06T07:58:07.465Z,17.7
2022-11-06T08:03:34.634Z,18.1
2022-11-06T08:08:41.493Z,18.4
2022-11-06T08:14:04.979Z,18.9
2022-11-06T08:19:30.857Z,19.2
2022-11-06T08:25:00.756Z,19.3
2022-11-06T08:30:23.562Z,19.1
2022-11-06T08:35:47.512Z,18.9
2022-11-06T08:40:56.090Z,18.8
2022-11-06T08:46:21.899Z,18.4
2022-11-06T08:51:45.769Z,18.2
2022-11-06T08:57:26.741Z,17.9
2022-11-06T09:03:13.191Z,17.8
2022-11-06T09:08:58.031Z,17.6
2022-11-06T09:14:43.332Z,17.7
2022-11-06T09:20:11.399Z,18
2022-11-06T09:26:02.205Z,18.6
2022-11-06T09:31:27.896Z,19.3
2022-11-06T09:37:13.390Z,19.6
2022-11-06T09:42:58.893Z,19.5
2022-11-06T09:49:10.062Z,19.3
2022-11-06T09:54:56.228Z,19.1
2022-11-06T10:00:38.000Z,18.9
2022-11-06T10:06:24.291Z,18.8
2022-11-06T10:12:02.126Z,18.6
2022-11-06T10:17:39.737Z,18.5
2022-11-06T10:23:19.843Z,18.4
2022-11-06T10:28:57.728Z,18.4
2022-11-06T10:34:35.617Z,18.5
2022-11-06T10:40:16.971Z,18.6
2022-11-06T10:45:53.361Z,18.9
2022-11-06T10:51:36.649Z,19.3
2022-11-06T10:57:19.981Z,19.9
2022-11-06T11:02:59.381Z,20
2022-11-06T11:08:27.569Z,19.6
2022-11-06T11:14:04.528Z,19.3
2022-11-06T11:19:27.538Z,19
2022-11-06T11:24:53.493Z,18.9
2022-11-06T11:30:18.384Z,18.8
2022-11-06T11:35:46.955Z,18.6
2022-11-06T11:41:10.163Z,18.8
2022-11-06T11:46:48.317Z,18.8
2022-11-06T11:52:30.116Z,19.1
2022-11-06T11:58:47.699Z,19.4
2022-11-06T12:04:30.002Z,19.7
2022-11-06T12:10:07.946Z,20.1
2022-11-06T12:15:30.188Z,20.4
2022-11-06T12:21:00.187Z,20.7
2022-11-06T12:26:37.600Z,20.8
2022-11-06T12:32:15.107Z,20.8
2022-11-06T12:38:22.010Z,20.6
2022-11-06T12:44:05.337Z,20.4
2022-11-06T12:49:44.658Z,20.1
2022-11-06T12:55:07.595Z,19.9
2022-11-06T13:00:31.627Z,19.6
2022-11-06T13:05:54.477Z,19.4
2022-11-06T13:11:35.339Z,19.2
2022-11-06T13:17:13.919Z,18.9
2022-11-06T13:22:52.308Z,18.6
2022-11-06T13:28:32.308Z,18.3
2022-11-06T13:34:09.899Z,18
2022-11-06T13:39:46.949Z,17.8
2022-11-06T13:45:09.307Z,17.4
2022-11-06T13:55:29.443Z,16.6
2022-11-06T14:01:09.270Z,16.3
2022-11-06T14:06:54.606Z,16.1
2022-11-06T14:12:32.803Z,15.9
2022-11-06T14:18:10.132Z,15.8
2022-11-06T14:23:49.273Z,15.7
2022-11-06T14:29:32.420Z,15.6
2022-11-06T14:35:30.308Z,15.3
2022-11-06T14:41:12.552Z,15.2
2022-11-06T14:46:56.480Z,15
2022-11-06T14:52:35.375Z,14.8
2022-11-06T14:58:15.366Z,14.6
2022-11-06T15:03:54.981Z,14.4
2022-11-06T15:10:05.759Z,14.3
2022-11-06T15:15:53.849Z,14.2
2022-11-06T15:21:15.035Z,14.1
2022-11-06T15:26:06.807Z,14
2022-11-06T15:31:44.931Z,13.9
2022-11-06T15:37:06.629Z,13.8
2022-11-06T15:42:36.072Z,13.7
2022-11-06T15:48:13.891Z,13.6
2022-11-06T15:53:58.147Z,13.6
2022-11-06T15:59:43.406Z,13.4
2022-11-06T16:05:27.732Z,13.4
2022-11-06T16:11:09.384Z,13.3
2022-11-06T16:16:49.762Z,13.1
2022-11-06T16:22:32.283Z,13
2022-11-06T16:27:44.623Z,12.9
2022-11-06T16:32:42.716Z,12.8
2022-11-06T16:38:56.061Z,12.6
2022-11-06T16:44:37.028Z,12.4
2022-11-06T16:49:59.363Z,12.3
2022-11-06T16:55:22.492Z,12.3
2022-11-06T17:01:00.408Z,12.3
2022-11-06T17:06:27.951Z,12.2
2022-11-06T17:11:50.574Z,12.1
2022-11-06T17:17:12.530Z,12.1
2022-11-06T17:22:50.254Z,11.9
2022-11-06T17:28:36.897Z,11.9
2022-11-06T17:33:59.278Z,11.9
2022-11-06T17:39:21.960Z,11.9
2022-11-06T17:44:44.336Z,11.9
2022-11-06T17:50:12.436Z,11.8
2022-11-06T17:55:35.089Z,11.8
2022-11-06T18:01:02.950Z,11.7
2022-11-06T18:07:17.157Z,11.6
2022-11-06T18:12:54.918Z,11.6
2022-11-06T18:18:16.978Z,11.6
2022-11-06T18:23:08.061Z,11.6
2022-11-06T18:28:03.593Z,11.7
2022-11-06T18:33:25.177Z,11.6
2022-11-06T18:39:09.514Z,11.6
2022-11-06T18:44:35.115Z,11.6
2022-11-06T18:50:16.025Z,11.6
2022-11-06T18:56:43.507Z,11.5
2022-11-06T19:02:29.848Z,11.4
2022-11-06T19:08:12.801Z,11.4
2022-11-06T19:13:35.560Z,11.4
2022-11-06T19:19:24.727Z,11.4
2022-11-06T19:24:47.558Z,11.4
2022-11-06T19:30:54.714Z,11.4
2022-11-06T19:36:34.153Z,11.3
2022-11-06T19:41:55.179Z,11.3
2022-11-06T19:47:39.447Z,11.2
2022-11-06T19:54:28.338Z,11.1
2022-11-06T20:01:10.224Z,10.9
2022-11-06T20:06:40.588Z,10.7
2022-11-06T20:12:03.366Z,10.5
2022-11-06T20:17:42.969Z,10.3
2022-11-06T20:23:11.791Z,10.1
2022-11-06T20:28:39.609Z,10.1
2022-11-06T20:34:20.566Z,10.3
2022-11-06T20:39:59.013Z,10.3
2022-11-06T20:45:39.423Z,10.3
2022-11-06T20:51:03.360Z,10.3
2022-11-06T20:57:23.158Z,10.3
2022-11-06T21:02:46.371Z,10.1
2022-11-06T21:07:53.163Z,10.1
2022-11-06T21:13:16.214Z,10.1
2022-11-06T21:18:37.977Z,10.1
2022-11-06T21:24:20.999Z,10.2
2022-11-06T21:29:45.879Z,10.2
2022-11-06T21:35:15.543Z,10.2
2022-11-06T21:40:48.933Z,10.3
2022-11-06T21:51:29.243Z,10.4
2022-11-06T21:57:07.148Z,10.4
2022-11-06T22:02:18.040Z,10.4
2022-11-06T22:07:56.482Z,10.4
2022-11-06T22:13:40.234Z,10.3
2022-11-06T22:19:02.964Z,10.2
2022-11-06T22:24:10.122Z,10.1
2022-11-06T22:31:58.617Z,9.9
2022-11-06T22:37:05.890Z,9.8
2022-11-06T22:42:47.151Z,9.6
2022-11-06T22:48:27.262Z,9.4
2022-11-06T22:53:49.622Z,9.3
2022-11-06T22:59:27.264Z,9.2
2022-11-06T23:05:08.869Z,9.1
2022-11-06T23:10:48.973Z,8.9
2022-11-06T23:16:27.951Z,8.8
2022-11-06T23:21:34.271Z,8.6
2022-11-06T23:26:57.309Z,8.5
2022-11-06T23:32:21.869Z,8.3
2022-11-06T23:37:36.134Z,8.2
2022-11-06T23:42:43.350Z,8
2022-11-06T23:48:08.553Z,7.9
2022-11-06T23:53:45.506Z,7.8
2022-11-06T23:58:52.284Z,7.7
